sensor_id;sensor_type;location;lat;lon;timestamp;temperature;humidity
5150;DHT22;2593;52.466;13.436;2023-10-31T00:00:32;12.20;1.00
5150;DHT22;2593;52.466;13.436;2023-10-31T00:02:58;12.30;99.90
5150;DHT22;2593;52.466;13.436;2023-10-31T00:05:23;12.30;99.90
5150;DHT22;2593;52.466;13.436;2023-10-31T00:07:49;12.20;1.00
5150;DHT22;2593;52.466;13.436;2023-10-31T00:10:14;12.20;99.90
5150;DHT22;2593;52.466;13.436;2023-10-31T00:12:40;12.20;99.90
5150;DHT22;2593;52.466;13.436;2023-10-31T00:15:05;12.10;99.90
5150;DHT22;2593;52.466;13.436;2023-10-31T00:17:31;12.10;99.90
5150;DHT22;2593;52.466;13.436;2023-10-31T00:19:56;12.00;1.00
5150;DHT22;2593;52.466;13.436;2023-10-31T00:22:22;12.00;1.00
5150;DHT22;2593;52.466;13.436;2023-10-31T00:24:48;12.00;41.60
5150;DHT22;2593;52.466;13.436;2023-10-31T00:27:13;12.00;39.20
5150;DHT22;2593;52.466;13.436;2023-10-31T00:29:40;12.00;99.90
5150;DHT22;2593;52.466;13.436;2023-10-31T00:32:05;12.10;99.90
5150;DHT22;2593;52.466;13.436;2023-10-31T00:34:31;12.10;99.90
5150;DHT22;2593;52.466;13.436;2023-10-31T00:36:56;12.20;99.90
5150;DHT22;2593;52.466;13.436;2023-10-31T00:39:22;12.20;99.90
5150;DHT22;2593;52.466;13.436;2023-10-31T00:41:48;12.20;99.90
5150;DHT22;2593;52.466;13.436;2023-10-31T00:44:13;12.10;99.90
5150;DHT22;2593;52.466;13.436;2023-10-31T00:46:39;12.20;1.00
5150;DHT22;2593;52.466;13.436;2023-10-31T00:49:04;12.20;99.90
5150;DHT22;2593;52.466;13.436;2023-10-31T00:51:30;12.20;99.90
5150;DHT22;2593;52.466;13.436;2023-10-31T00:53:56;12.10;1.00
5150;DHT22;2593;52.466;13.436;2023-10-31T00:56:21;12.10;99.90
5150;DHT22;2593;52.466;13.436;2023-10-31T00:58:47;12.10;99.90
5150;DHT22;2593;52.466;13.436;2023-10-31T01:01:12;12.20;1.00
5150;DHT22;2593;52.466;13.436;2023-10-31T01:03:38;12.10;1.00
5150;DHT22;2593;52.466;13.436;2023-10-31T01:06:03;12.10;1.00
5150;DHT22;2593;52.466;13.436;2023-10-31T01:08:29;12.10;7.20
5150;DHT22;2593;52.466;13.436;2023-10-31T01:10:55;12.20;1.00
5150;DHT22;2593;52.466;13.436;2023-10-31T01:13:21;12.20;56.00
5150;DHT22;2593;52.466;13.436;2023-10-31T01:15:46;12.20;99.90
5150;DHT22;2593;52.466;13.436;2023-10-31T01:18:12;12.20;99.90
5150;DHT22;2593;52.466;13.436;2023-10-31T01:20:37;12.20;99.90
5150;DHT22;2593;52.466;13.436;2023-10-31T01:23:03;12.20;99.90
5150;DHT22;2593;52.466;13.436;2023-10-31T01:25:29;12.20;99.90
5150;DHT22;2593;52.466;13.436;2023-10-31T01:27:54;12.20;99.90
5150;DHT22;2593;52.466;13.436;2023-10-31T01:30:20;12.20;99.90
5150;DHT22;2593;52.466;13.436;2023-10-31T01:32:45;12.20;99.90
5150;DHT22;2593;52.466;13.436;2023-10-31T01:35:11;12.20;99.90
5150;DHT22;2593;52.466;13.436;2023-10-31T01:37:36;12.10;1.00
5150;DHT22;2593;52.466;13.436;2023-10-31T01:40:02;12.10;1.00
5150;DHT22;2593;52.466;13.436;2023-10-31T01:42:29;12.10;1.00
5150;DHT22;2593;52.466;13.436;2023-10-31T01:44:54;12.10;1.00
5150;DHT22;2593;52.466;13.436;2023-10-31T01:47:20;12.10;1.00
5150;DHT22;2593;52.466;13.436;2023-10-31T01:49:46;12.00;1.00
5150;DHT22;2593;52.466;13.436;2023-10-31T01:52:12;12.10;95.00
5150;DHT22;2593;52.466;13.436;2023-10-31T01:54:37;12.00;99.90
5150;DHT22;2593;52.466;13.436;2023-10-31T01:57:03;12.00;99.90
5150;DHT22;2593;52.466;13.436;2023-10-31T01:59:30;12.00;99.90
5150;DHT22;2593;52.466;13.436;2023-10-31T02:01:55;12.10;99.90
5150;DHT22;2593;52.466;13.436;2023-10-31T02:04:23;12.10;99.90
5150;DHT22;2593;52.466;13.436;2023-10-31T02:06:49;12.10;99.90
5150;DHT22;2593;52.466;13.436;2023-10-31T02:09:14;12.10;99.90
5150;DHT22;2593;52.466;13.436;2023-10-31T02:11:40;12.10;99.90
5150;DHT22;2593;52.466;13.436;2023-10-31T02:14:05;12.00;99.90
5150;DHT22;2593;52.466;13.436;2023-10-31T02:16:31;12.00;99.90
5150;DHT22;2593;52.466;13.436;2023-10-31T02:18:56;12.00;99.90
5150;DHT22;2593;52.466;13.436;2023-10-31T02:21:22;12.00;99.90
5150;DHT22;2593;52.466;13.436;2023-10-31T02:24:01;11.90;99.90
5150;DHT22;2593;52.466;13.436;2023-10-31T02:26:34;11.90;99.90
5150;DHT22;2593;52.466;13.436;2023-10-31T02:29:00;11.90;99.90
5150;DHT22;2593;52.466;13.436;2023-10-31T02:31:26;11.80;99.90
5150;DHT22;2593;52.466;13.436;2023-10-31T02:33:51;11.80;99.90
5150;DHT22;2593;52.466;13.436;2023-10-31T02:36:17;11.80;99.90
5150;DHT22;2593;52.466;13.436;2023-10-31T02:38:42;11.80;99.90
5150;DHT22;2593;52.466;13.436;2023-10-31T02:41:08;11.70;99.90
5150;DHT22;2593;52.466;13.436;2023-10-31T02:43:33;11.80;99.90
5150;DHT22;2593;52.466;13.436;2023-10-31T02:45:59;11.80;99.90
5150;DHT22;2593;52.466;13.436;2023-10-31T02:48:25;11.70;99.90
5150;DHT22;2593;52.466;13.436;2023-10-31T02:50:51;11.80;99.90
5150;DHT22;2593;52.466;13.436;2023-10-31T02:53:19;11.80;99.90
5150;DHT22;2593;52.466;13.436;2023-10-31T02:55:45;11.80;99.90
5150;DHT22;2593;52.466;13.436;2023-10-31T02:58:10;11.80;99.90
5150;DHT22;2593;52.466;13.436;2023-10-31T03:00:36;11.80;99.90
5150;DHT22;2593;52.466;13.436;2023-10-31T03:03:01;11.80;99.90
5150;DHT22;2593;52.466;13.436;2023-10-31T03:05:27;11.80;99.90
5150;DHT22;2593;52.466;13.436;2023-10-31T03:07:52;11.80;99.90
5150;DHT22;2593;52.466;13.436;2023-10-31T03:10:19;11.90;99.90
5150;DHT22;2593;52.466;13.436;2023-10-31T03:12:44;11.90;99.90
5150;DHT22;2593;52.466;13.436;2023-10-31T03:15:10;11.90;99.90
5150;DHT22;2593;52.466;13.436;2023-10-31T03:17:35;11.90;99.90
5150;DHT22;2593;52.466;13.436;2023-10-31T03:20:01;11.90;99.90
5150;DHT22;2593;52.466;13.436;2023-10-31T03:22:27;11.90;99.90
5150;DHT22;2593;52.466;13.436;2023-10-31T03:24:52;11.90;99.90
5150;DHT22;2593;52.466;13.436;2023-10-31T03:27:17;11.90;99.90
5150;DHT22;2593;52.466;13.436;2023-10-31T03:29:43;11.90;99.90
5150;DHT22;2593;52.466;13.436;2023-10-31T03:32:08;11.90;99.90
5150;DHT22;2593;52.466;13.436;2023-10-31T03:34:35;11.90;99.90
5150;DHT22;2593;52.466;13.436;2023-10-31T03:37:00;11.90;99.90
5150;DHT22;2593;52.466;13.436;2023-10-31T03:39:26;12.00;99.90
5150;DHT22;2593;52.466;13.436;2023-10-31T03:41:52;12.00;99.90
5150;DHT22;2593;52.466;13.436;2023-10-31T03:44:18;12.00;99.90
5150;DHT22;2593;52.466;13.436;2023-10-31T03:46:43;12.00;99.90
5150;DHT22;2593;52.466;13.436;2023-10-31T03:49:09;11.90;99.90
5150;DHT22;2593;52.466;13.436;2023-10-31T03:51:34;12.00;99.90
5150;DHT22;2593;52.466;13.436;2023-10-31T03:54:00;12.00;99.90
5150;DHT22;2593;52.466;13.436;2023-10-31T03:56:25;12.10;99.90
5150;DHT22;2593;52.466;13.436;2023-10-31T03:58:51;12.10;99.90
5150;DHT22;2593;52.466;13.436;2023-10-31T04:01:16;12.00;99.90
5150;DHT22;2593;52.466;13.436;2023-10-31T04:03:42;12.00;99.90
5150;DHT22;2593;52.466;13.436;2023-10-31T04:06:07;12.00;99.90
5150;DHT22;2593;52.466;13.436;2023-10-31T04:08:33;11.90;99.90
5150;DHT22;2593;52.466;13.436;2023-10-31T04:10:58;11.80;99.90
5150;DHT22;2593;52.466;13.436;2023-10-31T04:13:24;11.80;99.90
5150;DHT22;2593;52.466;13.436;2023-10-31T04:15:49;11.80;99.90
5150;DHT22;2593;52.466;13.436;2023-10-31T04:18:15;11.80;99.90
5150;DHT22;2593;52.466;13.436;2023-10-31T04:20:41;11.80;99.90
5150;DHT22;2593;52.466;13.436;2023-10-31T04:23:07;12.00;99.90
5150;DHT22;2593;52.466;13.436;2023-10-31T04:25:33;12.00;99.90
5150;DHT22;2593;52.466;13.436;2023-10-31T04:27:58;12.00;99.90
5150;DHT22;2593;52.466;13.436;2023-10-31T04:30:24;12.10;99.90
5150;DHT22;2593;52.466;13.436;2023-10-31T04:32:49;12.00;99.90
5150;DHT22;2593;52.466;13.436;2023-10-31T04:35:15;12.00;99.90
5150;DHT22;2593;52.466;13.436;2023-10-31T04:37:40;12.10;99.90
5150;DHT22;2593;52.466;13.436;2023-10-31T04:40:06;12.10;99.90
5150;DHT22;2593;52.466;13.436;2023-10-31T04:42:32;12.10;99.90
5150;DHT22;2593;52.466;13.436;2023-10-31T04:44:59;12.10;99.90
5150;DHT22;2593;52.466;13.436;2023-10-31T04:47:24;12.20;99.90
5150;DHT22;2593;52.466;13.436;2023-10-31T04:49:50;12.20;99.90
5150;DHT22;2593;52.466;13.436;2023-10-31T04:52:16;12.20;99.90
5150;DHT22;2593;52.466;13.436;2023-10-31T04:54:42;12.20;99.90
5150;DHT22;2593;52.466;13.436;2023-10-31T04:57:07;12.20;99.90
5150;DHT22;2593;52.466;13.436;2023-10-31T04:59:33;12.20;99.90
5150;DHT22;2593;52.466;13.436;2023-10-31T05:01:58;12.30;99.90
5150;DHT22;2593;52.466;13.436;2023-10-31T05:04:24;12.20;99.90
5150;DHT22;2593;52.466;13.436;2023-10-31T05:06:49;12.10;99.90
5150;DHT22;2593;52.466;13.436;2023-10-31T05:09:15;12.10;99.90
5150;DHT22;2593;52.466;13.436;2023-10-31T05:11:40;12.10;99.90
5150;DHT22;2593;52.466;13.436;2023-10-31T05:14:08;12.20;99.90
5150;DHT22;2593;52.466;13.436;2023-10-31T05:16:41;12.20;99.90
5150;DHT22;2593;52.466;13.436;2023-10-31T05:19:07;12.10;99.90
5150;DHT22;2593;52.466;13.436;2023-10-31T05:21:32;12.10;99.90
5150;DHT22;2593;52.466;13.436;2023-10-31T05:23:58;12.10;99.90
5150;DHT22;2593;52.466;13.436;2023-10-31T05:26:23;12.20;99.90
5150;DHT22;2593;52.466;13.436;2023-10-31T05:28:48;12.10;99.90
5150;DHT22;2593;52.466;13.436;2023-10-31T05:31:17;12.10;99.90
5150;DHT22;2593;52.466;13.436;2023-10-31T05:33:43;12.20;99.90
5150;DHT22;2593;52.466;13.436;2023-10-31T05:36:21;12.10;99.90
5150;DHT22;2593;52.466;13.436;2023-10-31T05:38:47;12.20;99.90
5150;DHT22;2593;52.466;13.436;2023-10-31T05:41:13;12.10;99.90
5150;DHT22;2593;52.466;13.436;2023-10-31T05:43:38;12.10;99.90
5150;DHT22;2593;52.466;13.436;2023-10-31T05:46:04;12.10;99.90
5150;DHT22;2593;52.466;13.436;2023-10-31T05:48:30;12.10;99.90
5150;DHT22;2593;52.466;13.436;2023-10-31T05:50:56;12.10;99.90
5150;DHT22;2593;52.466;13.436;2023-10-31T05:53:21;12.10;99.90
5150;DHT22;2593;52.466;13.436;2023-10-31T05:55:47;12.20;99.90
5150;DHT22;2593;52.466;13.436;2023-10-31T05:58:12;12.20;99.90
5150;DHT22;2593;52.466;13.436;2023-10-31T06:00:38;12.20;99.90
5150;DHT22;2593;52.466;13.436;2023-10-31T06:03:03;12.10;99.90
5150;DHT22;2593;52.466;13.436;2023-10-31T06:05:29;12.10;99.90
5150;DHT22;2593;52.466;13.436;2023-10-31T06:07:54;12.20;99.90
5150;DHT22;2593;52.466;13.436;2023-10-31T06:10:20;12.20;99.90
5150;DHT22;2593;52.466;13.436;2023-10-31T06:12:46;12.10;99.90
5150;DHT22;2593;52.466;13.436;2023-10-31T06:15:12;12.10;99.90
5150;DHT22;2593;52.466;13.436;2023-10-31T06:17:37;12.10;99.90
5150;DHT22;2593;52.466;13.436;2023-10-31T06:20:03;12.20;99.90
5150;DHT22;2593;52.466;13.436;2023-10-31T06:22:29;12.20;99.90
5150;DHT22;2593;52.466;13.436;2023-10-31T06:24:54;12.20;99.90
5150;DHT22;2593;52.466;13.436;2023-10-31T06:27:20;12.10;99.90
5150;DHT22;2593;52.466;13.436;2023-10-31T06:29:45;12.20;99.90
5150;DHT22;2593;52.466;13.436;2023-10-31T06:32:11;12.30;99.90
5150;DHT22;2593;52.466;13.436;2023-10-31T06:34:36;12.20;99.90
5150;DHT22;2593;52.466;13.436;2023-10-31T06:37:02;12.30;99.90
5150;DHT22;2593;52.466;13.436;2023-10-31T06:39:28;12.30;99.90
5150;DHT22;2593;52.466;13.436;2023-10-31T06:41:54;12.30;99.90
5150;DHT22;2593;52.466;13.436;2023-10-31T06:44:20;12.40;99.90
5150;DHT22;2593;52.466;13.436;2023-10-31T06:46:45;12.30;99.90
5150;DHT22;2593;52.466;13.436;2023-10-31T06:49:11;12.30;99.90
5150;DHT22;2593;52.466;13.436;2023-10-31T06:51:36;12.30;99.90
5150;DHT22;2593;52.466;13.436;2023-10-31T06:54:02;12.30;99.90
5150;DHT22;2593;52.466;13.436;2023-10-31T06:56:27;12.30;99.90
5150;DHT22;2593;52.466;13.436;2023-10-31T06:58:54;12.40;99.90
5150;DHT22;2593;52.466;13.436;2023-10-31T07:01:19;12.40;99.90
5150;DHT22;2593;52.466;13.436;2023-10-31T07:03:45;12.60;99.90
5150;DHT22;2593;52.466;13.436;2023-10-31T07:06:10;12.50;99.90
5150;DHT22;2593;52.466;13.436;2023-10-31T07:08:36;12.50;99.90
5150;DHT22;2593;52.466;13.436;2023-10-31T07:11:01;12.60;99.90
5150;DHT22;2593;52.466;13.436;2023-10-31T07:13:27;12.50;99.90
5150;DHT22;2593;52.466;13.436;2023-10-31T07:15:52;12.60;99.90
5150;DHT22;2593;52.466;13.436;2023-10-31T07:18:18;12.60;99.90
5150;DHT22;2593;52.466;13.436;2023-10-31T07:20:43;12.70;99.90
5150;DHT22;2593;52.466;13.436;2023-10-31T07:23:09;12.70;99.90
5150;DHT22;2593;52.466;13.436;2023-10-31T07:25:34;12.60;99.90
5150;DHT22;2593;52.466;13.436;2023-10-31T07:28:00;12.60;99.90
5150;DHT22;2593;52.466;13.436;2023-10-31T07:30:25;12.60;99.90
5150;DHT22;2593;52.466;13.436;2023-10-31T07:32:52;12.70;99.90
5150;DHT22;2593;52.466;13.436;2023-10-31T07:35:18;12.70;99.90
5150;DHT22;2593;52.466;13.436;2023-10-31T07:37:45;12.70;99.90
5150;DHT22;2593;52.466;13.436;2023-10-31T07:40:11;12.80;99.90
5150;DHT22;2593;52.466;13.436;2023-10-31T07:42:36;12.90;99.90
5150;DHT22;2593;52.466;13.436;2023-10-31T07:45:02;12.80;99.90
5150;DHT22;2593;52.466;13.436;2023-10-31T07:47:27;12.90;99.90
5150;DHT22;2593;52.466;13.436;2023-10-31T07:49:53;12.90;99.90
5150;DHT22;2593;52.466;13.436;2023-10-31T07:52:18;12.90;99.90
5150;DHT22;2593;52.466;13.436;2023-10-31T07:54:44;12.90;99.90
5150;DHT22;2593;52.466;13.436;2023-10-31T07:57:09;12.90;99.90
5150;DHT22;2593;52.466;13.436;2023-10-31T07:59:35;12.80;99.90
5150;DHT22;2593;52.466;13.436;2023-10-31T08:02:01;12.80;99.90
5150;DHT22;2593;52.466;13.436;2023-10-31T08:04:27;12.70;99.90
5150;DHT22;2593;52.466;13.436;2023-10-31T08:06:55;12.80;99.90
5150;DHT22;2593;52.466;13.436;2023-10-31T08:09:21;12.80;99.90
5150;DHT22;2593;52.466;13.436;2023-10-31T08:11:47;12.70;99.90
5150;DHT22;2593;52.466;13.436;2023-10-31T08:14:13;12.90;99.90
5150;DHT22;2593;52.466;13.436;2023-10-31T08:16:38;13.00;99.90
5150;DHT22;2593;52.466;13.436;2023-10-31T08:19:04;13.00;99.90
5150;DHT22;2593;52.466;13.436;2023-10-31T08:21:29;13.00;99.90
5150;DHT22;2593;52.466;13.436;2023-10-31T08:24:02;13.00;99.90
5150;DHT22;2593;52.466;13.436;2023-10-31T08:26:29;13.10;99.90
5150;DHT22;2593;52.466;13.436;2023-10-31T08:28:55;13.20;99.90
5150;DHT22;2593;52.466;13.436;2023-10-31T08:31:20;13.30;99.90
5150;DHT22;2593;52.466;13.436;2023-10-31T08:33:46;13.30;99.90
5150;DHT22;2593;52.466;13.436;2023-10-31T08:36:11;13.40;99.90
5150;DHT22;2593;52.466;13.436;2023-10-31T08:38:37;13.50;99.90
5150;DHT22;2593;52.466;13.436;2023-10-31T08:41:02;13.60;99.90
5150;DHT22;2593;52.466;13.436;2023-10-31T08:43:28;13.70;99.90
5150;DHT22;2593;52.466;13.436;2023-10-31T08:45:54;14.20;96.80
5150;DHT22;2593;52.466;13.436;2023-10-31T08:48:19;14.50;52.40
5150;DHT22;2593;52.466;13.436;2023-10-31T08:50:45;14.30;10.90
5150;DHT22;2593;52.466;13.436;2023-10-31T08:53:11;14.30;4.90
5150;DHT22;2593;52.466;13.436;2023-10-31T08:55:37;14.40;1.00
5150;DHT22;2593;52.466;13.436;2023-10-31T08:58:02;14.30;1.00
5150;DHT22;2593;52.466;13.436;2023-10-31T09:00:28;14.30;1.00
5150;DHT22;2593;52.466;13.436;2023-10-31T09:02:54;14.30;1.00
5150;DHT22;2593;52.466;13.436;2023-10-31T09:05:20;14.20;1.00
5150;DHT22;2593;52.466;13.436;2023-10-31T09:07:45;14.00;1.00
5150;DHT22;2593;52.466;13.436;2023-10-31T09:10:11;13.90;1.00
5150;DHT22;2593;52.466;13.436;2023-10-31T09:12:37;13.90;1.00
5150;DHT22;2593;52.466;13.436;2023-10-31T09:15:03;13.90;1.00
5150;DHT22;2593;52.466;13.436;2023-10-31T09:17:28;13.70;1.00
5150;DHT22;2593;52.466;13.436;2023-10-31T09:19:54;13.60;1.00
5150;DHT22;2593;52.466;13.436;2023-10-31T09:22:20;13.50;1.00
5150;DHT22;2593;52.466;13.436;2023-10-31T09:24:46;13.60;1.00
5150;DHT22;2593;52.466;13.436;2023-10-31T09:27:11;13.80;1.00
5150;DHT22;2593;52.466;13.436;2023-10-31T09:29:37;14.00;1.00
5150;DHT22;2593;52.466;13.436;2023-10-31T09:32:02;14.30;1.00
5150;DHT22;2593;52.466;13.436;2023-10-31T09:34:28;14.20;1.00
5150;DHT22;2593;52.466;13.436;2023-10-31T09:36:54;14.20;1.00
5150;DHT22;2593;52.466;13.436;2023-10-31T09:39:20;14.10;1.00
5150;DHT22;2593;52.466;13.436;2023-10-31T09:41:46;14.00;1.00
5150;DHT22;2593;52.466;13.436;2023-10-31T09:44:12;14.10;1.00
5150;DHT22;2593;52.466;13.436;2023-10-31T09:46:38;13.90;1.00
5150;DHT22;2593;52.466;13.436;2023-10-31T09:49:04;13.80;1.00
5150;DHT22;2593;52.466;13.436;2023-10-31T09:51:30;13.80;1.00
5150;DHT22;2593;52.466;13.436;2023-10-31T09:53:55;13.80;1.00
5150;DHT22;2593;52.466;13.436;2023-10-31T09:56:22;14.10;1.00
5150;DHT22;2593;52.466;13.436;2023-10-31T09:58:48;14.20;1.00
5150;DHT22;2593;52.466;13.436;2023-10-31T10:01:14;14.40;1.00
5150;DHT22;2593;52.466;13.436;2023-10-31T10:03:40;14.70;1.00
5150;DHT22;2593;52.466;13.436;2023-10-31T10:06:06;15.10;1.00
5150;DHT22;2593;52.466;13.436;2023-10-31T10:08:31;15.20;1.00
5150;DHT22;2593;52.466;13.436;2023-10-31T10:10:57;15.00;1.00
5150;DHT22;2593;52.466;13.436;2023-10-31T10:13:22;14.70;1.00
5150;DHT22;2593;52.466;13.436;2023-10-31T10:15:48;14.60;1.00
5150;DHT22;2593;52.466;13.436;2023-10-31T10:18:24;14.40;1.00
5150;DHT22;2593;52.466;13.436;2023-10-31T10:23:22;14.40;1.00
5150;DHT22;2593;52.466;13.436;2023-10-31T10:25:50;14.50;1.00
5150;DHT22;2593;52.466;13.436;2023-10-31T10:28:16;14.50;1.00
5150;DHT22;2593;52.466;13.436;2023-10-31T10:30:44;14.50;1.00
5150;DHT22;2593;52.466;13.436;2023-10-31T10:33:10;14.50;1.00
5150;DHT22;2593;52.466;13.436;2023-10-31T10:35:35;14.30;1.00
5150;DHT22;2593;52.466;13.436;2023-10-31T10:38:01;14.10;1.00
5150;DHT22;2593;52.466;13.436;2023-10-31T10:40:28;14.00;1.00
5150;DHT22;2593;52.466;13.436;2023-10-31T10:42:53;14.20;1.00
5150;DHT22;2593;52.466;13.436;2023-10-31T10:45:23;14.40;1.00
5150;DHT22;2593;52.466;13.436;2023-10-31T10:47:49;14.50;1.00
5150;DHT22;2593;52.466;13.436;2023-10-31T10:50:15;14.70;1.00
5150;DHT22;2593;52.466;13.436;2023-10-31T10:52:49;14.70;1.00
5150;DHT22;2593;52.466;13.436;2023-10-31T10:55:20;14.60;1.00
5150;DHT22;2593;52.466;13.436;2023-10-31T11:00:13;14.70;1.00
5150;DHT22;2593;52.466;13.436;2023-10-31T11:02:40;14.70;1.00
5150;DHT22;2593;52.466;13.436;2023-10-31T11:05:09;14.90;1.00
5150;DHT22;2593;52.466;13.436;2023-10-31T11:07:35;14.80;1.00
5150;DHT22;2593;52.466;13.436;2023-10-31T11:10:02;14.90;1.00
5150;DHT22;2593;52.466;13.436;2023-10-31T11:12:31;14.70;1.00
5150;DHT22;2593;52.466;13.436;2023-10-31T11:15:00;14.50;1.00
5150;DHT22;2593;52.466;13.436;2023-10-31T11:17:28;14.60;1.00
5150;DHT22;2593;52.466;13.436;2023-10-31T11:19:54;14.60;1.00
5150;DHT22;2593;52.466;13.436;2023-10-31T11:22:20;14.50;1.00
5150;DHT22;2593;52.466;13.436;2023-10-31T11:24:47;14.40;1.00
5150;DHT22;2593;52.466;13.436;2023-10-31T11:27:13;14.40;1.00
5150;DHT22;2593;52.466;13.436;2023-10-31T11:29:39;14.30;1.00
5150;DHT22;2593;52.466;13.436;2023-10-31T11:32:07;14.10;1.00
5150;DHT22;2593;52.466;13.436;2023-10-31T11:34:34;14.20;1.00
5150;DHT22;2593;52.466;13.436;2023-10-31T11:42:31;14.20;1.00
5150;DHT22;2593;52.466;13.436;2023-10-31T11:44:57;14.30;1.00
5150;DHT22;2593;52.466;13.436;2023-10-31T11:47:22;14.30;1.00
5150;DHT22;2593;52.466;13.436;2023-10-31T11:49:48;14.10;1.00
5150;DHT22;2593;52.466;13.436;2023-10-31T11:52:16;14.10;1.00
5150;DHT22;2593;52.466;13.436;2023-10-31T11:54:42;14.00;1.00
5150;DHT22;2593;52.466;13.436;2023-10-31T11:57:08;14.00;1.00
5150;DHT22;2593;52.466;13.436;2023-10-31T11:59:37;14.10;1.00
5150;DHT22;2593;52.466;13.436;2023-10-31T12:02:12;14.10;1.00
5150;DHT22;2593;52.466;13.436;2023-10-31T12:04:39;14.10;1.00
5150;DHT22;2593;52.466;13.436;2023-10-31T12:07:04;14.10;1.00
5150;DHT22;2593;52.466;13.436;2023-10-31T12:09:31;13.90;1.00
5150;DHT22;2593;52.466;13.436;2023-10-31T12:11:56;13.80;1.00
5150;DHT22;2593;52.466;13.436;2023-10-31T12:14:22;13.90;1.00
5150;DHT22;2593;52.466;13.436;2023-10-31T12:16:47;13.90;1.00
5150;DHT22;2593;52.466;13.436;2023-10-31T12:19:13;14.00;1.00
5150;DHT22;2593;52.466;13.436;2023-10-31T12:21:42;14.00;1.00
5150;DHT22;2593;52.466;13.436;2023-10-31T12:24:09;14.00;1.00
5150;DHT22;2593;52.466;13.436;2023-10-31T12:26:34;14.10;1.00
5150;DHT22;2593;52.466;13.436;2023-10-31T12:31:38;13.90;1.00
5150;DHT22;2593;52.466;13.436;2023-10-31T12:34:05;13.90;1.00
5150;DHT22;2593;52.466;13.436;2023-10-31T12:36:30;13.80;1.00
5150;DHT22;2593;52.466;13.436;2023-10-31T12:38:56;13.70;1.00
5150;DHT22;2593;52.466;13.436;2023-10-31T12:41:22;13.80;1.00
5150;DHT22;2593;52.466;13.436;2023-10-31T12:43:47;13.90;1.00
5150;DHT22;2593;52.466;13.436;2023-10-31T12:46:26;13.80;1.00
5150;DHT22;2593;52.466;13.436;2023-10-31T12:48:52;13.80;1.00
5150;DHT22;2593;52.466;13.436;2023-10-31T12:51:17;13.70;1.00
5150;DHT22;2593;52.466;13.436;2023-10-31T12:53:48;13.80;1.00
5150;DHT22;2593;52.466;13.436;2023-10-31T12:56:33;13.90;1.00
5150;DHT22;2593;52.466;13.436;2023-10-31T12:58:59;14.00;1.00
5150;DHT22;2593;52.466;13.436;2023-10-31T13:01:24;13.70;1.00
5150;DHT22;2593;52.466;13.436;2023-10-31T13:03:50;13.80;1.00
5150;DHT22;2593;52.466;13.436;2023-10-31T13:06:19;13.80;1.00
5150;DHT22;2593;52.466;13.436;2023-10-31T13:08:45;13.90;1.00
5150;DHT22;2593;52.466;13.436;2023-10-31T13:11:11;13.90;1.00
5150;DHT22;2593;52.466;13.436;2023-10-31T13:13:38;13.80;1.00
5150;DHT22;2593;52.466;13.436;2023-10-31T13:16:04;13.80;1.00
5150;DHT22;2593;52.466;13.436;2023-10-31T13:18:30;13.80;1.00
5150;DHT22;2593;52.466;13.436;2023-10-31T13:20:55;13.90;1.00
5150;DHT22;2593;52.466;13.436;2023-10-31T13:23:21;13.90;1.00
5150;DHT22;2593;52.466;13.436;2023-10-31T13:25:46;13.90;1.00
5150;DHT22;2593;52.466;13.436;2023-10-31T13:28:12;13.70;1.00
5150;DHT22;2593;52.466;13.436;2023-10-31T13:30:39;13.80;1.00
5150;DHT22;2593;52.466;13.436;2023-10-31T13:33:05;13.90;1.00
5150;DHT22;2593;52.466;13.436;2023-10-31T13:35:31;13.80;1.00
5150;DHT22;2593;52.466;13.436;2023-10-31T13:37:57;13.80;1.00
5150;DHT22;2593;52.466;13.436;2023-10-31T13:40:23;13.70;1.00
5150;DHT22;2593;52.466;13.436;2023-10-31T13:42:48;13.60;1.00
5150;DHT22;2593;52.466;13.436;2023-10-31T13:45:14;13.60;1.00
5150;DHT22;2593;52.466;13.436;2023-10-31T13:47:39;13.50;1.00
5150;DHT22;2593;52.466;13.436;2023-10-31T13:50:05;13.60;1.00
5150;DHT22;2593;52.466;13.436;2023-10-31T13:52:31;13.50;1.00
5150;DHT22;2593;52.466;13.436;2023-10-31T13:54:56;13.60;1.00
5150;DHT22;2593;52.466;13.436;2023-10-31T13:57:23;13.70;1.00
5150;DHT22;2593;52.466;13.436;2023-10-31T13:59:49;13.70;1.00
5150;DHT22;2593;52.466;13.436;2023-10-31T14:02:15;13.60;1.00
5150;DHT22;2593;52.466;13.436;2023-10-31T14:04:41;13.40;1.00
5150;DHT22;2593;52.466;13.436;2023-10-31T14:07:07;13.30;6.80
5150;DHT22;2593;52.466;13.436;2023-10-31T14:09:32;13.30;56.00
5150;DHT22;2593;52.466;13.436;2023-10-31T14:11:58;13.30;92.50
5150;DHT22;2593;52.466;13.436;2023-10-31T14:14:24;13.20;99.90
5150;DHT22;2593;52.466;13.436;2023-10-31T14:16:49;13.20;95.70
5150;DHT22;2593;52.466;13.436;2023-10-31T14:19:15;13.20;92.20
5150;DHT22;2593;52.466;13.436;2023-10-31T14:21:41;13.10;93.90
5150;DHT22;2593;52.466;13.436;2023-10-31T14:24:07;13.10;99.90
5150;DHT22;2593;52.466;13.436;2023-10-31T14:26:33;13.10;97.90
5150;DHT22;2593;52.466;13.436;2023-10-31T14:28:59;12.90;99.90
5150;DHT22;2593;52.466;13.436;2023-10-31T14:31:25;12.90;99.90
5150;DHT22;2593;52.466;13.436;2023-10-31T14:33:51;12.90;99.90
5150;DHT22;2593;52.466;13.436;2023-10-31T14:36:16;12.80;99.90
5150;DHT22;2593;52.466;13.436;2023-10-31T14:38:42;12.60;99.90
5150;DHT22;2593;52.466;13.436;2023-10-31T14:41:08;12.80;99.90
5150;DHT22;2593;52.466;13.436;2023-10-31T14:43:34;12.80;99.90
5150;DHT22;2593;52.466;13.436;2023-10-31T14:45:59;12.70;99.90
5150;DHT22;2593;52.466;13.436;2023-10-31T14:48:25;12.80;1.00
5150;DHT22;2593;52.466;13.436;2023-10-31T14:50:50;12.80;1.00
5150;DHT22;2593;52.466;13.436;2023-10-31T14:53:16;12.70;1.00
5150;DHT22;2593;52.466;13.436;2023-10-31T14:55:42;12.70;99.90
5150;DHT22;2593;52.466;13.436;2023-10-31T14:58:07;12.50;99.90
5150;DHT22;2593;52.466;13.436;2023-10-31T15:00:36;12.30;1.00
5150;DHT22;2593;52.466;13.436;2023-10-31T15:03:02;12.30;99.90
5150;DHT22;2593;52.466;13.436;2023-10-31T15:05:28;12.30;99.90
5150;DHT22;2593;52.466;13.436;2023-10-31T15:07:53;12.20;1.00
5150;DHT22;2593;52.466;13.436;2023-10-31T15:10:19;12.20;99.90
5150;DHT22;2593;52.466;13.436;2023-10-31T15:12:48;12.10;99.90
5150;DHT22;2593;52.466;13.436;2023-10-31T15:15:14;12.20;1.00
5150;DHT22;2593;52.466;13.436;2023-10-31T15:17:39;12.10;99.90
5150;DHT22;2593;52.466;13.436;2023-10-31T15:20:05;12.10;99.90
5150;DHT22;2593;52.466;13.436;2023-10-31T15:22:31;12.10;99.90
5150;DHT22;2593;52.466;13.436;2023-10-31T15:24:57;12.10;1.00
5150;DHT22;2593;52.466;13.436;2023-10-31T15:27:22;12.00;1.00
5150;DHT22;2593;52.466;13.436;2023-10-31T15:29:48;12.00;1.00
5150;DHT22;2593;52.466;13.436;2023-10-31T15:32:14;12.10;99.90
5150;DHT22;2593;52.466;13.436;2023-10-31T15:34:39;12.00;99.90
5150;DHT22;2593;52.466;13.436;2023-10-31T15:37:08;12.00;63.60
5150;DHT22;2593;52.466;13.436;2023-10-31T15:39:34;12.00;99.90
5150;DHT22;2593;52.466;13.436;2023-10-31T15:41:59;12.00;99.90
5150;DHT22;2593;52.466;13.436;2023-10-31T15:44:25;11.90;1.00
5150;DHT22;2593;52.466;13.436;2023-10-31T15:46:50;11.90;99.90
5150;DHT22;2593;52.466;13.436;2023-10-31T15:49:16;12.00;99.90
5150;DHT22;2593;52.466;13.436;2023-10-31T15:51:42;12.10;99.90
5150;DHT22;2593;52.466;13.436;2023-10-31T15:54:08;12.20;99.90
5150;DHT22;2593;52.466;13.436;2023-10-31T15:56:33;12.10;99.90